sensor_id;sensor_type;location;lat;lon;timestamp;pressure;altitude;pressure_sealevel;temperature
80537;BMP280;69867;47.074;15.404;2023-07-29T00:02:05;97069.78;;;20.61
80537;BMP280;69867;47.074;15.404;2023-07-29T00:04:30;97079.72;;;20.58
80537;BMP280;69867;47.074;15.404;2023-07-29T00:06:55;97080.78;;;20.55
80537;BMP280;69867;47.074;15.404;2023-07-29T00:09:21;97079.53;;;20.48
80537;BMP280;69867;47.074;15.404;2023-07-29T00:11:46;97093.38;;;20.39
80537;BMP280;69867;47.074;15.404;2023-07-29T00:14:11;97083.97;;;20.35
80537;BMP280;69867;47.074;15.404;2023-07-29T00:16:37;97086.41;;;20.38
80537;BMP280;69867;47.074;15.404;2023-07-29T00:19:03;97088.19;;;20.37
80537;BMP280;69867;47.074;15.404;2023-07-29T00:21:28;97088.19;;;20.37
80537;BMP280;69867;47.074;15.404;2023-07-29T00:23:53;97087.44;;;20.35
80537;BMP280;69867;47.074;15.404;2023-07-29T00:26:18;97091.81;;;20.24
80537;BMP280;69867;47.074;15.404;2023-07-29T00:28:44;97100.25;;;20.16
80537;BMP280;69867;47.074;15.404;2023-07-29T00:31:09;97090.75;;;20.13
80537;BMP280;69867;47.074;15.404;2023-07-29T00:33:34;97083.56;;;20.16
80537;BMP280;69867;47.074;15.404;2023-07-29T00:36:00;97089.06;;;20.12
80537;BMP280;69867;47.074;15.404;2023-07-29T00:38:25;97086.44;;;20.12
80537;BMP280;69867;47.074;15.404;2023-07-29T00:40:51;97078.72;;;20.09
80537;BMP280;69867;47.074;15.404;2023-07-29T00:43:16;97081.38;;;20.09
80537;BMP280;69867;47.074;15.404;2023-07-29T00:45:43;97080.63;;;20.07
80537;BMP280;69867;47.074;15.404;2023-07-29T00:48:09;97073.88;;;20.03
80537;BMP280;69867;47.074;15.404;2023-07-29T00:50:34;97067.34;;;19.96
80537;BMP280;69867;47.074;15.404;2023-07-29T00:52:59;97074.50;;;19.94
80537;BMP280;69867;47.074;15.404;2023-07-29T00:55:25;97064.28;;;19.90
80537;BMP280;69867;47.074;15.404;2023-07-29T00:57:51;97063.75;;;19.85
80537;BMP280;69867;47.074;15.404;2023-07-29T01:00:17;97059.13;;;19.75
80537;BMP280;69867;47.074;15.404;2023-07-29T01:02:43;97058.06;;;19.78
80537;BMP280;69867;47.074;15.404;2023-07-29T01:05:11;97056.16;;;19.80
80537;BMP280;69867;47.074;15.404;2023-07-29T01:07:58;97056.16;;;19.80
80537;BMP280;69867;47.074;15.404;2023-07-29T01:13:31;97051.22;;;19.75
80537;BMP280;69867;47.074;15.404;2023-07-29T01:16:06;97048.88;;;19.71
80537;BMP280;69867;47.074;15.404;2023-07-29T01:18:36;97051.94;;;19.65
80537;BMP280;69867;47.074;15.404;2023-07-29T01:21:07;97049.50;;;19.62
80537;BMP280;69867;47.074;15.404;2023-07-29T01:23:34;97054.47;;;19.54
80537;BMP280;69867;47.074;15.404;2023-07-29T01:26:00;97056.91;;;19.42
80537;BMP280;69867;47.074;15.404;2023-07-29T01:28:25;97053.75;;;19.37
80537;BMP280;69867;47.074;15.404;2023-07-29T01:30:57;97062.59;;;19.36
80537;BMP280;69867;47.074;15.404;2023-07-29T01:33:26;97061.94;;;19.33
80537;BMP280;69867;47.074;15.404;2023-07-29T01:35:57;97060.56;;;19.27
80537;BMP280;69867;47.074;15.404;2023-07-29T01:38:33;97066.03;;;19.24
80537;BMP280;69867;47.074;15.404;2023-07-29T01:41:01;97056.88;;;19.17
80537;BMP280;69867;47.074;15.404;2023-07-29T01:43:27;97062.13;;;19.17
80537;BMP280;69867;47.074;15.404;2023-07-29T01:45:52;97052.63;;;19.14
80537;BMP280;69867;47.074;15.404;2023-07-29T01:48:17;97057.06;;;19.14
80537;BMP280;69867;47.074;15.404;2023-07-29T01:50:43;97053.69;;;19.12
80537;BMP280;69867;47.074;15.404;2023-07-29T01:53:08;97057.38;;;19.09
80537;BMP280;69867;47.074;15.404;2023-07-29T01:55:33;97055.78;;;19.07
80537;BMP280;69867;47.074;15.404;2023-07-29T01:57:59;97056.81;;;19.04
80537;BMP280;69867;47.074;15.404;2023-07-29T02:00:24;97060.09;;;19.08
80537;BMP280;69867;47.074;15.404;2023-07-29T02:02:49;97064.63;;;19.06
80537;BMP280;69867;47.074;15.404;2023-07-29T02:05:15;97052.41;;;19.05
80537;BMP280;69867;47.074;15.404;2023-07-29T02:07:40;97056.19;;;19.01
80537;BMP280;69867;47.074;15.404;2023-07-29T02:10:06;97054.06;;;18.93
80537;BMP280;69867;47.074;15.404;2023-07-29T02:12:31;97059.13;;;18.96
80537;BMP280;69867;47.074;15.404;2023-07-29T02:14:56;97053.59;;;18.86
80537;BMP280;69867;47.074;15.404;2023-07-29T02:17:22;97063.28;;;18.86
80537;BMP280;69867;47.074;15.404;2023-07-29T02:19:47;97057.19;;;18.85
80537;BMP280;69867;47.074;15.404;2023-07-29T02:22:17;97060.56;;;18.88
80537;BMP280;69867;47.074;15.404;2023-07-29T02:24:42;97060.38;;;18.91
80537;BMP280;69867;47.074;15.404;2023-07-29T02:27:08;97058.56;;;18.91
80537;BMP280;69867;47.074;15.404;2023-07-29T02:29:33;97054.16;;;18.92
80537;BMP280;69867;47.074;15.404;2023-07-29T02:31:59;97063.94;;;18.90
80537;BMP280;69867;47.074;15.404;2023-07-29T02:34:25;97067.50;;;18.89
80537;BMP280;69867;47.074;15.404;2023-07-29T02:36:50;97072.34;;;18.82
80537;BMP280;69867;47.074;15.404;2023-07-29T02:39:16;97071.69;;;18.78
80537;BMP280;69867;47.074;15.404;2023-07-29T02:41:41;97073.56;;;18.76
80537;BMP280;69867;47.074;15.404;2023-07-29T02:44:06;97074.41;;;18.77
80537;BMP280;69867;47.074;15.404;2023-07-29T02:46:32;97068.31;;;18.76
80537;BMP280;69867;47.074;15.404;2023-07-29T02:48:57;97070.00;;;18.77
80537;BMP280;69867;47.074;15.404;2023-07-29T02:51:22;97074.41;;;18.77
80537;BMP280;69867;47.074;15.404;2023-07-29T02:53:48;97082.41;;;18.75
80537;BMP280;69867;47.074;15.404;2023-07-29T02:56:13;97076.19;;;18.76
80537;BMP280;69867;47.074;15.404;2023-07-29T02:58:39;97077.16;;;18.75
80537;BMP280;69867;47.074;15.404;2023-07-29T03:01:05;97070.19;;;18.74
80537;BMP280;69867;47.074;15.404;2023-07-29T03:03:31;97075.25;;;18.77
80537;BMP280;69867;47.074;15.404;2023-07-29T03:06:01;97071.59;;;18.80
80537;BMP280;69867;47.074;15.404;2023-07-29T03:08:27;97076.75;;;18.81
80537;BMP280;69867;47.074;15.404;2023-07-29T03:10:52;97076.66;;;18.83
80537;BMP280;69867;47.074;15.404;2023-07-29T03:13:17;97068.66;;;18.84
80537;BMP280;69867;47.074;15.404;2023-07-29T03:15:42;97070.06;;;18.90
80537;BMP280;69867;47.074;15.404;2023-07-29T03:18:08;97072.59;;;18.92
80537;BMP280;69867;47.074;15.404;2023-07-29T03:20:33;97074.06;;;18.96
80537;BMP280;69867;47.074;15.404;2023-07-29T03:22:58;97069.44;;;18.99
80537;BMP280;69867;47.074;15.404;2023-07-29T03:25:24;97072.72;;;19.03
80537;BMP280;69867;47.074;15.404;2023-07-29T03:27:49;97070.53;;;19.09
80537;BMP280;69867;47.074;15.404;2023-07-29T03:30:14;97058.75;;;19.15
80537;BMP280;69867;47.074;15.404;2023-07-29T03:32:43;97062.78;;;19.21
80537;BMP280;69867;47.074;15.404;2023-07-29T03:35:09;97071.81;;;19.16
80537;BMP280;69867;47.074;15.404;2023-07-29T03:37:34;97071.63;;;19.19
80537;BMP280;69867;47.074;15.404;2023-07-29T03:39:59;97070.38;;;19.25
80537;BMP280;69867;47.074;15.404;2023-07-29T03:42:24;97073.94;;;19.24
80537;BMP280;69867;47.074;15.404;2023-07-29T03:44:50;97062.56;;;19.24
80537;BMP280;69867;47.074;15.404;2023-07-29T03:47:15;97070.16;;;19.28
80537;BMP280;69867;47.074;15.404;2023-07-29T03:49:40;97066.47;;;19.31
80537;BMP280;69867;47.074;15.404;2023-07-29T03:52:06;97074.19;;;19.34
80537;BMP280;69867;47.074;15.404;2023-07-29T03:54:31;97073.13;;;19.36
80537;BMP280;69867;47.074;15.404;2023-07-29T03:56:57;97077.47;;;19.37
80537;BMP280;69867;47.074;15.404;2023-07-29T03:59:22;97080.72;;;19.41
80537;BMP280;69867;47.074;15.404;2023-07-29T04:01:47;97083.38;;;19.41
80537;BMP280;69867;47.074;15.404;2023-07-29T04:04:12;97094.53;;;19.44
80537;BMP280;69867;47.074;15.404;2023-07-29T04:06:38;97085.91;;;19.42
80537;BMP280;69867;47.074;15.404;2023-07-29T04:09:03;97093.59;;;19.45
80537;BMP280;69867;47.074;15.404;2023-07-29T04:11:29;97082.00;;;19.48
80537;BMP280;69867;47.074;15.404;2023-07-29T04:13:59;97089.81;;;19.49
80537;BMP280;69867;47.074;15.404;2023-07-29T04:16:24;97095.50;;;19.43
80537;BMP280;69867;47.074;15.404;2023-07-29T04:18:50;97110.56;;;19.41
80537;BMP280;69867;47.074;15.404;2023-07-29T04:21:15;97105.81;;;19.46
80537;BMP280;69867;47.074;15.404;2023-07-29T04:23:40;97103.09;;;19.48
80537;BMP280;69867;47.074;15.404;2023-07-29T04:26:06;97113.72;;;19.46
80537;BMP280;69867;47.074;15.404;2023-07-29T04:28:31;97102.25;;;19.47
80537;BMP280;69867;47.074;15.404;2023-07-29T04:30:56;97112.44;;;19.39
80537;BMP280;69867;47.074;15.404;2023-07-29T04:33:22;97105.19;;;19.43
80537;BMP280;69867;47.074;15.404;2023-07-29T04:35:47;97111.84;;;19.48
80537;BMP280;69867;47.074;15.404;2023-07-29T04:38:12;97117.50;;;19.57
80537;BMP280;69867;47.074;15.404;2023-07-29T04:40:38;97113.72;;;19.61
80537;BMP280;69867;47.074;15.404;2023-07-29T04:43:03;97120.78;;;19.60
80537;BMP280;69867;47.074;15.404;2023-07-29T04:45:29;97128.72;;;19.73
80537;BMP280;69867;47.074;15.404;2023-07-29T04:47:55;97132.50;;;19.69
80537;BMP280;69867;47.074;15.404;2023-07-29T04:50:20;97123.34;;;19.87
80537;BMP280;69867;47.074;15.404;2023-07-29T04:52:45;97117.97;;;20.01
80537;BMP280;69867;47.074;15.404;2023-07-29T04:55:11;97128.22;;;20.06
80537;BMP280;69867;47.074;15.404;2023-07-29T04:57:36;97137.81;;;19.94
80537;BMP280;69867;47.074;15.404;2023-07-29T05:00:03;97125.56;;;20.06
80537;BMP280;69867;47.074;15.404;2023-07-29T05:02:28;97130.84;;;20.19
80537;BMP280;69867;47.074;15.404;2023-07-29T05:04:53;97129.47;;;20.13
80537;BMP280;69867;47.074;15.404;2023-07-29T05:07:19;97125.47;;;20.07
80537;BMP280;69867;47.074;15.404;2023-07-29T05:09:44;97132.75;;;20.17
80537;BMP280;69867;47.074;15.404;2023-07-29T05:12:09;97126.00;;;20.12
80537;BMP280;69867;47.074;15.404;2023-07-29T05:14:35;97124.09;;;20.14
80537;BMP280;69867;47.074;15.404;2023-07-29T05:17:00;97119.13;;;20.23
80537;BMP280;69867;47.074;15.404;2023-07-29T05:19:26;97124.19;;;20.26
80537;BMP280;69867;47.074;15.404;2023-07-29T05:21:51;97124.72;;;20.31
80537;BMP280;69867;47.074;15.404;2023-07-29T05:24:17;97130.63;;;20.22
80537;BMP280;69867;47.074;15.404;2023-07-29T05:26:42;97123.47;;;20.24
80537;BMP280;69867;47.074;15.404;2023-07-29T05:29:07;97126.19;;;20.22
80537;BMP280;69867;47.074;15.404;2023-07-29T05:31:33;97130.53;;;20.23
80537;BMP280;69867;47.074;15.404;2023-07-29T05:33:58;97127.56;;;20.28
80537;BMP280;69867;47.074;15.404;2023-07-29T05:36:24;97133.59;;;20.30
80537;BMP280;69867;47.074;15.404;2023-07-29T05:38:49;97131.69;;;20.32
80537;BMP280;69867;47.074;15.404;2023-07-29T05:41:16;97123.34;;;20.38
80537;BMP280;69867;47.074;15.404;2023-07-29T05:43:42;97122.19;;;20.42
80537;BMP280;69867;47.074;15.404;2023-07-29T05:46:07;97123.69;;;20.46
80537;BMP280;69867;47.074;15.404;2023-07-29T05:48:32;97122.63;;;20.49
80537;BMP280;69867;47.074;15.404;2023-07-29T05:50:57;97130.44;;;20.50
80537;BMP280;69867;47.074;15.404;2023-07-29T05:53:23;97130.75;;;20.45
80537;BMP280;69867;47.074;15.404;2023-07-29T05:55:48;97120.09;;;20.47
80537;BMP280;69867;47.074;15.404;2023-07-29T05:58:14;97121.66;;;20.50
80537;BMP280;69867;47.074;15.404;2023-07-29T06:00:39;97128.53;;;20.52
80537;BMP280;69867;47.074;15.404;2023-07-29T06:03:04;97129.78;;;20.59
80537;BMP280;69867;47.074;15.404;2023-07-29T06:05:29;97127.53;;;20.66
80537;BMP280;69867;47.074;15.404;2023-07-29T06:07:55;97130.91;;;20.81
80537;BMP280;69867;47.074;15.404;2023-07-29T06:10:20;97133.31;;;20.96
80537;BMP280;69867;47.074;15.404;2023-07-29T06:12:46;97123.41;;;21.11
80537;BMP280;69867;47.074;15.404;2023-07-29T06:15:11;97129.19;;;21.29
80537;BMP280;69867;47.074;15.404;2023-07-29T06:17:36;97120.63;;;21.49
80537;BMP280;69867;47.074;15.404;2023-07-29T06:20:02;97119.00;;;21.70
80537;BMP280;69867;47.074;15.404;2023-07-29T06:22:27;97122.78;;;21.90
80537;BMP280;69867;47.074;15.404;2023-07-29T06:24:53;97124.72;;;21.99
80537;BMP280;69867;47.074;15.404;2023-07-29T06:27:18;97125.91;;;22.19
80537;BMP280;69867;47.074;15.404;2023-07-29T06:29:43;97130.97;;;22.45
80537;BMP280;69867;47.074;15.404;2023-07-29T06:32:08;97116.16;;;22.87
80537;BMP280;69867;47.074;15.404;2023-07-29T06:34:34;97100.56;;;23.16
80537;BMP280;69867;47.074;15.404;2023-07-29T06:36:59;97104.19;;;23.58
80537;BMP280;69867;47.074;15.404;2023-07-29T06:39:24;97106.91;;;23.68
80537;BMP280;69867;47.074;15.404;2023-07-29T06:41:50;97108.53;;;23.48
80537;BMP280;69867;47.074;15.404;2023-07-29T06:44:16;97107.63;;;23.70
80537;BMP280;69867;47.074;15.404;2023-07-29T06:46:41;97112.53;;;23.74
80537;BMP280;69867;47.074;15.404;2023-07-29T06:49:06;97104.50;;;23.65
80537;BMP280;69867;47.074;15.404;2023-07-29T06:51:32;97113.44;;;23.20
80537;BMP280;69867;47.074;15.404;2023-07-29T06:53:57;97111.06;;;23.06
80537;BMP280;69867;47.074;15.404;2023-07-29T06:56:22;97117.41;;;23.15
80537;BMP280;69867;47.074;15.404;2023-07-29T06:58:48;97118.88;;;23.51
80537;BMP280;69867;47.074;15.404;2023-07-29T07:01:13;97111.25;;;23.89
80537;BMP280;69867;47.074;15.404;2023-07-29T07:03:38;97112.41;;;23.97
80537;BMP280;69867;47.074;15.404;2023-07-29T07:06:03;97116.88;;;23.96
80537;BMP280;69867;47.074;15.404;2023-07-29T07:08:29;97110.53;;;24.08
80537;BMP280;69867;47.074;15.404;2023-07-29T07:10:54;97117.69;;;24.38
80537;BMP280;69867;47.074;15.404;2023-07-29T07:13:19;97109.19;;;24.44
80537;BMP280;69867;47.074;15.404;2023-07-29T07:15:45;97106.00;;;24.50
80537;BMP280;69867;47.074;15.404;2023-07-29T07:18:10;97096.78;;;24.54
80537;BMP280;69867;47.074;15.404;2023-07-29T07:20:35;97096.13;;;24.62
80537;BMP280;69867;47.074;15.404;2023-07-29T07:23:01;97083.78;;;24.82
80537;BMP280;69867;47.074;15.404;2023-07-29T07:25:26;97087.44;;;24.91
80537;BMP280;69867;47.074;15.404;2023-07-29T07:27:51;97081.69;;;24.95
80537;BMP280;69867;47.074;15.404;2023-07-29T07:30:17;97080.50;;;25.09
80537;BMP280;69867;47.074;15.404;2023-07-29T07:32:42;97081.47;;;25.17
80537;BMP280;69867;47.074;15.404;2023-07-29T07:35:07;97082.88;;;25.22
80537;BMP280;69867;47.074;15.404;2023-07-29T07:37:33;97089.59;;;25.35
80537;BMP280;69867;47.074;15.404;2023-07-29T07:39:58;97092.81;;;25.19
80537;BMP280;69867;47.074;15.404;2023-07-29T07:42:25;97092.81;;;25.19
80537;BMP280;69867;47.074;15.404;2023-07-29T07:44:50;97082.47;;;25.36
80537;BMP280;69867;47.074;15.404;2023-07-29T07:47:15;97082.88;;;25.50
80537;BMP280;69867;47.074;15.404;2023-07-29T07:49:40;97075.47;;;25.54
80537;BMP280;69867;47.074;15.404;2023-07-29T07:52:06;97075.47;;;25.54
80537;BMP280;69867;47.074;15.404;2023-07-29T07:54:31;97077.56;;;25.60
80537;BMP280;69867;47.074;15.404;2023-07-29T07:56:57;97074.63;;;25.63
80537;BMP280;69867;47.074;15.404;2023-07-29T07:59:22;97075.63;;;25.72
80537;BMP280;69867;47.074;15.404;2023-07-29T08:01:47;97068.44;;;25.63
80537;BMP280;69867;47.074;15.404;2023-07-29T08:04:13;97073.66;;;25.74
80537;BMP280;69867;47.074;15.404;2023-07-29T08:06:38;97066.09;;;25.69
80537;BMP280;69867;47.074;15.404;2023-07-29T08:09:03;97080.22;;;25.89
80537;BMP280;69867;47.074;15.404;2023-07-29T08:11:29;97069.28;;;26.02
80537;BMP280;69867;47.074;15.404;2023-07-29T08:13:54;97066.59;;;26.11
80537;BMP280;69867;47.074;15.404;2023-07-29T08:16:19;97070.22;;;26.20
80537;BMP280;69867;47.074;15.404;2023-07-29T08:18:45;97064.59;;;26.23
80537;BMP280;69867;47.074;15.404;2023-07-29T08:21:10;97065.28;;;26.35
80537;BMP280;69867;47.074;15.404;2023-07-29T08:23:36;97064.00;;;26.39
80537;BMP280;69867;47.074;15.404;2023-07-29T08:26:03;97062.28;;;26.48
80537;BMP280;69867;47.074;15.404;2023-07-29T08:28:34;97059.88;;;26.54
80537;BMP280;69867;47.074;15.404;2023-07-29T08:30:59;97059.81;;;26.64
80537;BMP280;69867;47.074;15.404;2023-07-29T08:33:25;97055.03;;;26.67
80537;BMP280;69867;47.074;15.404;2023-07-29T08:35:51;97060.69;;;26.55
80537;BMP280;69867;47.074;15.404;2023-07-29T08:38:16;97057.06;;;26.56
80537;BMP280;69867;47.074;15.404;2023-07-29T08:40:45;97051.22;;;26.42
80537;BMP280;69867;47.074;15.404;2023-07-29T08:43:14;97054.03;;;26.31
80537;BMP280;69867;47.074;15.404;2023-07-29T08:45:39;97058.13;;;26.35
80537;BMP280;69867;47.074;15.404;2023-07-29T08:48:08;97056.00;;;26.39
80537;BMP280;69867;47.074;15.404;2023-07-29T08:50:36;97057.34;;;26.53
80537;BMP280;69867;47.074;15.404;2023-07-29T08:53:03;97056.00;;;26.66
80537;BMP280;69867;47.074;15.404;2023-07-29T08:55:29;97052.31;;;26.77
80537;BMP280;69867;47.074;15.404;2023-07-29T08:57:55;97048.44;;;26.89
80537;BMP280;69867;47.074;15.404;2023-07-29T09:00:21;97047.41;;;27.00
80537;BMP280;69867;47.074;15.404;2023-07-29T09:02:47;97052.28;;;27.04
80537;BMP280;69867;47.074;15.404;2023-07-29T09:05:12;97047.81;;;27.05
80537;BMP280;69867;47.074;15.404;2023-07-29T09:07:38;97051.84;;;27.09
80537;BMP280;69867;47.074;15.404;2023-07-29T09:10:04;97044.06;;;27.16
80537;BMP280;69867;47.074;15.404;2023-07-29T09:12:29;97045.53;;;27.28
80537;BMP280;69867;47.074;15.404;2023-07-29T09:14:55;97045.31;;;27.39
80537;BMP280;69867;47.074;15.404;2023-07-29T09:17:21;97033.28;;;27.35
80537;BMP280;69867;47.074;15.404;2023-07-29T09:19:50;97038.16;;;27.39
80537;BMP280;69867;47.074;15.404;2023-07-29T09:22:22;97034.88;;;27.46
80537;BMP280;69867;47.074;15.404;2023-07-29T09:24:47;97028.91;;;27.52
80537;BMP280;69867;47.074;15.404;2023-07-29T09:27:25;97024.09;;;27.55
80537;BMP280;69867;47.074;15.404;2023-07-29T09:29:52;97023.19;;;27.64
80537;BMP280;69867;47.074;15.404;2023-07-29T09:32:22;97020.28;;;27.58
80537;BMP280;69867;47.074;15.404;2023-07-29T09:34:48;97018.91;;;27.71
80537;BMP280;69867;47.074;15.404;2023-07-29T09:37:17;97025.31;;;27.79
80537;BMP280;69867;47.074;15.404;2023-07-29T09:39:46;97009.81;;;27.82
80537;BMP280;69867;47.074;15.404;2023-07-29T09:42:17;97027.41;;;27.93
80537;BMP280;69867;47.074;15.404;2023-07-29T09:44:42;97023.09;;;28.00
80537;BMP280;69867;47.074;15.404;2023-07-29T09:47:08;97023.09;;;28.00
80537;BMP280;69867;47.074;15.404;2023-07-29T09:49:35;97020.28;;;28.01
80537;BMP280;69867;47.074;15.404;2023-07-29T09:52:00;97028.44;;;28.00
80537;BMP280;69867;47.074;15.404;2023-07-29T09:54:25;97021.09;;;28.02
80537;BMP280;69867;47.074;15.404;2023-07-29T09:56:51;97024.97;;;28.08
80537;BMP280;69867;47.074;15.404;2023-07-29T09:59:19;97017.66;;;28.10
80537;BMP280;69867;47.074;15.404;2023-07-29T10:01:44;97021.03;;;28.20
80537;BMP280;69867;47.074;15.404;2023-07-29T10:04:10;97017.91;;;28.24
80537;BMP280;69867;47.074;15.404;2023-07-29T10:06:36;97012.94;;;28.29
80537;BMP280;69867;47.074;15.404;2023-07-29T10:09:04;97017.91;;;28.24
80537;BMP280;69867;47.074;15.404;2023-07-29T10:11:31;97018.78;;;28.33
80537;BMP280;69867;47.074;15.404;2023-07-29T10:13:58;97019.84;;;28.40
80537;BMP280;69867;47.074;15.404;2023-07-29T10:16:25;97015.00;;;28.44
80537;BMP280;69867;47.074;15.404;2023-07-29T10:18:52;97010.38;;;28.54
80537;BMP280;69867;47.074;15.404;2023-07-29T10:21:19;97011.72;;;28.58
80537;BMP280;69867;47.074;15.404;2023-07-29T10:23:47;97009.25;;;28.64
80537;BMP280;69867;47.074;15.404;2023-07-29T10:26:16;97017.78;;;28.68
80537;BMP280;69867;47.074;15.404;2023-07-29T10:28:47;97014.63;;;28.73
80537;BMP280;69867;47.074;15.404;2023-07-29T10:31:15;97011.09;;;28.64
80537;BMP280;69867;47.074;15.404;2023-07-29T10:33:42;97019.44;;;28.61
80537;BMP280;69867;47.074;15.404;2023-07-29T10:36:08;97022.13;;;28.61
80537;BMP280;69867;47.074;15.404;2023-07-29T10:38:34;97015.91;;;28.60
80537;BMP280;69867;47.074;15.404;2023-07-29T10:40:59;97012.69;;;28.49
80537;BMP280;69867;47.074;15.404;2023-07-29T10:45:51;97007.53;;;28.55
80537;BMP280;69867;47.074;15.404;2023-07-29T10:51:37;97008.59;;;28.71
80537;BMP280;69867;47.074;15.404;2023-07-29T10:56:32;97004.50;;;28.92
80537;BMP280;69867;47.074;15.404;2023-07-29T11:12:36;96977.94;;;29.72
80537;BMP280;69867;47.074;15.404;2023-07-29T11:17:40;96970.13;;;29.54
80537;BMP280;69867;47.074;15.404;2023-07-29T11:20:07;96970.59;;;29.66
80537;BMP280;69867;47.074;15.404;2023-07-29T11:22:33;96966.09;;;29.67
80537;BMP280;69867;47.074;15.404;2023-07-29T11:24:58;96962.56;;;29.74
80537;BMP280;69867;47.074;15.404;2023-07-29T11:27:24;96955.50;;;29.81
80537;BMP280;69867;47.074;15.404;2023-07-29T11:29:49;96947.63;;;29.88
80537;BMP280;69867;47.074;15.404;2023-07-29T11:32:15;96948.81;;;30.02
80537;BMP280;69867;47.074;15.404;2023-07-29T11:34:41;96946.97;;;30.02
80537;BMP280;69867;47.074;15.404;2023-07-29T11:37:07;96945.59;;;30.14
80537;BMP280;69867;47.074;15.404;2023-07-29T11:39:41;96945.91;;;30.19
80537;BMP280;69867;47.074;15.404;2023-07-29T11:42:11;96939.53;;;30.20
80537;BMP280;69867;47.074;15.404;2023-07-29T11:44:37;96933.16;;;30.21
80537;BMP280;69867;47.074;15.404;2023-07-29T11:47:06;96925.84;;;30.07
80537;BMP280;69867;47.074;15.404;2023-07-29T11:49:33;96918.69;;;29.91
80537;BMP280;69867;47.074;15.404;2023-07-29T11:51:58;96926.25;;;29.72
80537;BMP280;69867;47.074;15.404;2023-07-29T11:54:24;96917.88;;;29.67
80537;BMP280;69867;47.074;15.404;2023-07-29T11:56:50;96916.91;;;29.59
80537;BMP280;69867;47.074;15.404;2023-07-29T11:59:15;96908.53;;;29.54
80537;BMP280;69867;47.074;15.404;2023-07-29T12:01:41;96912.56;;;29.50
80537;BMP280;69867;47.074;15.404;2023-07-29T12:04:06;96913.75;;;29.48
80537;BMP280;69867;47.074;15.404;2023-07-29T12:06:32;96919.75;;;29.42
80537;BMP280;69867;47.074;15.404;2023-07-29T12:08:58;96915.22;;;29.42
80537;BMP280;69867;47.074;15.404;2023-07-29T12:11:24;96911.22;;;29.46
80537;BMP280;69867;47.074;15.404;2023-07-29T12:13:49;96900.34;;;29.56
80537;BMP280;69867;47.074;15.404;2023-07-29T12:16:17;96906.50;;;29.65
80537;BMP280;69867;47.074;15.404;2023-07-29T12:18:43;96908.53;;;29.54
80537;BMP280;69867;47.074;15.404;2023-07-29T12:21:08;96897.50;;;29.57
80537;BMP280;69867;47.074;15.404;2023-07-29T12:23:33;96898.13;;;29.68
80537;BMP280;69867;47.074;15.404;2023-07-29T12:25:59;96898.06;;;29.84
80537;BMP280;69867;47.074;15.404;2023-07-29T12:28:25;96890.66;;;30.10
80537;BMP280;69867;47.074;15.404;2023-07-29T12:30:57;96883.16;;;30.37
80537;BMP280;69867;47.074;15.404;2023-07-29T12:33:37;96890.00;;;30.70
80537;BMP280;69867;47.074;15.404;2023-07-29T12:36:02;96882.50;;;30.88
80537;BMP280;69867;47.074;15.404;2023-07-29T12:38:29;96884.28;;;30.96
80537;BMP280;69867;47.074;15.404;2023-07-29T12:40:54;96882.25;;;30.98
80537;BMP280;69867;47.074;15.404;2023-07-29T12:43:20;96882.13;;;30.92
80537;BMP280;69867;47.074;15.404;2023-07-29T12:45:45;96892.50;;;30.95
80537;BMP280;69867;47.074;15.404;2023-07-29T12:48:11;96894.53;;;30.93
80537;BMP280;69867;47.074;15.404;2023-07-29T12:50:39;96900.03;;;30.76
80537;BMP280;69867;47.074;15.404;2023-07-29T12:53:06;96901.28;;;30.57
80537;BMP280;69867;47.074;15.404;2023-07-29T12:55:31;96903.09;;;30.34
80537;BMP280;69867;47.074;15.404;2023-07-29T12:57:56;96900.03;;;30.14
80537;BMP280;69867;47.074;15.404;2023-07-29T13:00:22;96914.63;;;30.12
80537;BMP280;69867;47.074;15.404;2023-07-29T13:02:47;96917.97;;;29.89
80537;BMP280;69867;47.074;15.404;2023-07-29T13:05:12;96922.69;;;29.79
80537;BMP280;69867;47.074;15.404;2023-07-29T13:07:42;96929.91;;;29.71
80537;BMP280;69867;47.074;15.404;2023-07-29T13:10:08;96941.19;;;29.50
80537;BMP280;69867;47.074;15.404;2023-07-29T13:12:34;96953.88;;;28.91
80537;BMP280;69867;47.074;15.404;2023-07-29T13:14:59;96945.50;;;28.35
80537;BMP280;69867;47.074;15.404;2023-07-29T13:17:25;96935.31;;;28.05
80537;BMP280;69867;47.074;15.404;2023-07-29T13:19:50;96929.28;;;27.95
80537;BMP280;69867;47.074;15.404;2023-07-29T13:22:16;96927.44;;;27.95
80537;BMP280;69867;47.074;15.404;2023-07-29T13:24:41;96923.28;;;28.01
80537;BMP280;69867;47.074;15.404;2023-07-29T13:27:07;96925.41;;;27.89
80537;BMP280;69867;47.074;15.404;2023-07-29T13:29:32;96925.22;;;27.83
80537;BMP280;69867;47.074;15.404;2023-07-29T13:31:57;96928.44;;;27.42
80537;BMP280;69867;47.074;15.404;2023-07-29T13:34:23;96919.38;;;27.35
80537;BMP280;69867;47.074;15.404;2023-07-29T13:36:48;96912.22;;;27.36
80537;BMP280;69867;47.074;15.404;2023-07-29T13:39:13;96913.06;;;27.36
80537;BMP280;69867;47.074;15.404;2023-07-29T13:41:39;96913.91;;;27.37
80537;BMP280;69867;47.074;15.404;2023-07-29T13:44:04;96900.59;;;27.45
80537;BMP280;69867;47.074;15.404;2023-07-29T13:46:29;96898.34;;;27.58
80537;BMP280;69867;47.074;15.404;2023-07-29T13:48:55;96892.44;;;27.72
80537;BMP280;69867;47.074;15.404;2023-07-29T13:51:20;96899.06;;;27.60
80537;BMP280;69867;47.074;15.404;2023-07-29T13:53:45;96894.91;;;27.66
80537;BMP280;69867;47.074;15.404;2023-07-29T13:56:11;96893.59;;;27.70
80537;BMP280;69867;47.074;15.404;2023-07-29T13:58:36;96901.84;;;27.59
80537;BMP280;69867;47.074;15.404;2023-07-29T14:01:01;96897.00;;;27.54
80537;BMP280;69867;47.074;15.404;2023-07-29T14:03:27;96894.69;;;27.59
80537;BMP280;69867;47.074;15.404;2023-07-29T14:05:52;96893.72;;;27.60
80537;BMP280;69867;47.074;15.404;2023-07-29T14:08:17;96885.75;;;27.68
80537;BMP280;69867;47.074;15.404;2023-07-29T14:10:43;96888.16;;;27.80
80537;BMP280;69867;47.074;15.404;2023-07-29T14:13:08;96874.72;;;27.63
80537;BMP280;69867;47.074;15.404;2023-07-29T14:15:33;96875.16;;;27.85
80537;BMP280;69867;47.074;15.404;2023-07-29T14:17:59;96873.53;;;28.00